Time;durP1;ratioP1;P1;durP2;ratioP2;P2;SDS_P1;SDS_P2;PMS_P1;PMS_P2;Temp;Humidity;BMP_temperature;BMP_pressure;BME280_temperature;BME280_humidity;BME280_pressure;Samples;Min_cycle;Max_cycle;Signal;HPM_P1;HPM_P2
2023/08/01 00:01:09;;;;;;;2.20;1.50;;;25.70;48.30;;;;;;5127497;27;45398;-70
2023/08/01 00:03:36;;;;;;;1.77;1.38;;;25.70;47.80;;;;;;5126899;27;46305;-70
2023/08/01 00:06:03;;;;;;;2.67;1.60;;;25.70;47.70;;;;;;5126914;27;45333;-70
2023/08/01 00:08:30;;;;;;;1.52;1.42;;;25.70;47.80;;;;;;5127309;27;45325;-70
2023/08/01 00:10:57;;;;;;;1.65;1.40;;;25.60;47.70;;;;;;5127296;27;45233;-70
2023/08/01 00:13:25;;;;;;;2.53;1.67;;;25.60;47.60;;;;;;5126781;27;46388;-70
2023/08/01 00:15:52;;;;;;;2.15;1.40;;;25.60;47.60;;;;;;5126842;27;45445;-70
2023/08/01 00:18:19;;;;;;;1.77;1.65;;;25.60;47.60;;;;;;5127207;27;45358;-70
2023/08/01 00:20:45;;;;;;;1.83;1.52;;;25.60;47.60;;;;;;5127386;27;45406;-70
2023/08/01 00:23:12;;;;;;;2.17;1.42;;;25.60;47.70;;;;;;5126938;27;46342;-70
2023/08/01 00:25:39;;;;;;;1.60;1.30;;;25.60;48.30;;;;;;5126868;27;45284;-70
2023/08/01 00:28:06;;;;;;;1.48;1.38;;;25.50;47.60;;;;;;5126885;27;45294;-70
2023/08/01 00:30:34;;;;;;;1.50;1.40;;;25.50;47.60;;;;;;5127459;27;45505;-69
2023/08/01 00:33:01;;;;;;;1.70;1.60;;;25.50;47.70;;;;;;5130183;27;45268;-70
2023/08/01 00:35:28;;;;;;;1.50;1.40;;;25.50;47.60;;;;;;5130337;27;45279;-70
2023/08/01 00:37:55;;;;;;;1.48;1.30;;;25.50;47.70;;;;;;5130559;27;45684;-70
2023/08/01 00:40:20;;;;;;;2.03;1.45;;;25.50;47.70;;;;;;5130072;27;45316;-70
2023/08/01 00:42:48;;;;;;;1.75;1.35;;;25.50;47.80;;;;;;5130145;27;45366;-70
2023/08/01 00:45:15;;;;;;;1.40;1.30;;;25.50;47.70;;;;;;5130041;27;45251;-70
2023/08/01 00:47:43;;;;;;;1.98;1.70;;;25.50;47.70;;;;;;5130377;27;45271;-70
2023/08/01 00:50:10;;;;;;;1.60;1.38;;;25.50;47.80;;;;;;5130453;27;45381;-70
2023/08/01 00:52:37;;;;;;;1.40;1.30;;;25.50;47.80;;;;;;5130017;27;45361;-70
2023/08/01 00:55:05;;;;;;;1.70;1.30;;;25.50;47.80;;;;;;5129880;27;45291;-70
2023/08/01 00:57:31;;;;;;;1.58;1.48;;;25.50;47.80;;;;;;5130216;27;45263;-70
2023/08/01 00:59:58;;;;;;;1.98;1.48;;;25.50;47.80;;;;;;5130208;27;45531;-70
2023/08/01 01:02:25;;;;;;;1.65;1.52;;;25.40;47.80;;;;;;5130010;27;45404;-70
2023/08/01 01:04:54;;;;;;;2.15;1.42;;;25.40;47.80;;;;;;5129559;27;45386;-70
2023/08/01 01:07:21;;;;;;;1.60;1.48;;;25.40;47.80;;;;;;5130156;27;45329;-70
2023/08/01 01:09:48;;;;;;;1.60;1.50;;;25.40;47.80;;;;;;5130259;27;45175;-71
2023/08/01 01:12:15;;;;;;;1.50;1.40;;;25.40;47.80;;;;;;5129695;27;45240;-70
2023/08/01 01:14:41;;;;;;;1.63;1.50;;;25.40;47.80;;;;;;5129563;27;46446;-70
2023/08/01 01:17:08;;;;;;;1.77;1.58;;;25.40;47.90;;;;;;5130034;27;45281;-70
2023/08/01 01:19:35;;;;;;;2.28;1.45;;;25.40;47.80;;;;;;5130515;27;45194;-70
2023/08/01 01:22:04;;;;;;;1.60;1.50;;;25.40;47.90;;;;;;5129415;27;46592;-70
2023/08/01 01:24:31;;;;;;;2.15;1.50;;;25.30;47.80;;;;;;5129093;27;45361;-70
2023/08/01 01:26:59;;;;;;;1.77;1.50;;;25.30;47.80;;;;;;5129892;27;45385;-70
2023/08/01 01:29:27;;;;;;;1.65;1.50;;;25.30;47.80;;;;;;5130087;27;45577;-70
2023/08/01 01:31:54;;;;;;;1.73;1.63;;;25.30;47.80;;;;;;5129468;27;46299;-70
2023/08/01 01:34:20;;;;;;;1.75;1.50;;;25.30;47.90;;;;;;5129643;27;45303;-70
2023/08/01 01:36:47;;;;;;;1.70;1.40;;;25.30;47.90;;;;;;5130218;27;45375;-69
2023/08/01 01:39:15;;;;;;;1.38;1.27;;;25.30;47.80;;;;;;5129382;27;45450;-69
2023/08/01 01:41:42;;;;;;;1.80;1.55;;;25.30;47.90;;;;;;5129029;27;46401;-69
2023/08/01 01:44:09;;;;;;;1.55;1.45;;;25.30;48.00;;;;;;5129174;27;45320;-68
2023/08/01 01:46:36;;;;;;;1.88;1.65;;;25.30;48.00;;;;;;5129426;27;45567;-68
2023/08/01 01:49:03;;;;;;;1.50;1.40;;;25.30;48.00;;;;;;5129476;27;45574;-69
2023/08/01 01:51:31;;;;;;;1.85;1.60;;;25.30;48.10;;;;;;5128917;27;45321;-69
2023/08/01 01:53:58;;;;;;;2.05;1.60;;;25.20;48.00;;;;;;5128650;27;45322;-69
2023/08/01 01:56:26;;;;;;;1.48;1.38;;;25.20;48.00;;;;;;5129071;27;45306;-69
2023/08/01 01:58:53;;;;;;;2.13;1.70;;;25.20;48.00;;;;;;5129198;27;45280;-68
2023/08/01 02:01:20;;;;;;;1.63;1.52;;;25.20;48.10;;;;;;5128811;27;46403;-68
2023/08/01 02:03:46;;;;;;;1.45;1.35;;;25.20;48.10;;;;;;5128962;27;45313;-69
2023/08/01 02:06:12;;;;;;;2.38;1.50;;;25.20;48.00;;;;;;5128940;27;45305;-69
2023/08/01 02:08:39;;;;;;;2.55;1.48;;;25.20;48.10;;;;;;5128985;27;45486;-69
2023/08/01 02:11:06;;;;;;;2.13;1.63;;;25.20;48.00;;;;;;5128163;27;45369;-69
2023/08/01 02:13:34;;;;;;;1.52;1.40;;;25.20;48.00;;;;;;5128648;27;45389;-69
2023/08/01 02:16:01;;;;;;;2.03;1.70;;;25.10;47.90;;;;;;5128766;27;45299;-69
2023/08/01 02:18:28;;;;;;;1.95;1.73;;;25.10;48.00;;;;;;5128816;27;45402;-69
2023/08/01 02:20:55;;;;;;;2.42;1.67;;;25.10;48.00;;;;;;5125894;27;46157;-69
2023/08/01 02:23:22;;;;;;;1.92;1.58;;;25.10;48.10;;;;;;5128343;27;45323;-69
2023/08/01 02:25:48;;;;;;;1.70;1.55;;;25.10;48.10;;;;;;5128786;27;45376;-69
2023/08/01 02:28:15;;;;;;;2.25;1.65;;;25.10;48.10;;;;;;5128635;27;45463;-68
2023/08/01 02:30:44;;;;;;;1.98;1.67;;;25.10;48.00;;;;;;5128458;27;45277;-69
2023/08/01 02:33:10;;;;;;;1.45;1.35;;;25.10;48.10;;;;;;5128679;27;45361;-70
2023/08/01 02:35:38;;;;;;;3.90;1.75;;;25.10;48.10;;;;;;5128452;27;45338;-68
2023/08/01 02:38:05;;;;;;;1.60;1.50;;;25.10;48.10;;;;;;5128597;27;45347;-70
2023/08/01 02:40:31;;;;;;;3.03;1.92;;;25.00;48.10;;;;;;5128180;27;46398;-68
2023/08/01 02:42:58;;;;;;;1.98;1.70;;;25.00;48.00;;;;;;5128228;27;45206;-69
2023/08/01 02:45:25;;;;;;;1.42;1.25;;;25.00;48.00;;;;;;5128288;27;45342;-70
2023/08/01 02:47:53;;;;;;;2.95;1.58;;;25.00;48.00;;;;;;5128695;27;45416;-71
2023/08/01 02:50:20;;;;;;;1.67;1.50;;;25.00;48.10;;;;;;5128011;27;46692;-70
2023/08/01 02:52:47;;;;;;;1.88;1.55;;;25.00;48.00;;;;;;5128194;27;45230;-68
2023/08/01 02:55:14;;;;;;;1.98;1.60;;;25.00;48.00;;;;;;5127050;27;45258;-70
2023/08/01 02:57:41;;;;;;;1.80;1.48;;;25.00;48.00;;;;;;5128774;27;45289;-70
2023/08/01 03:00:11;;;;;;;2.13;1.75;;;25.00;48.10;;;;;;5127740;27;46379;-69
2023/08/01 03:02:38;;;;;;;2.25;1.60;;;25.00;48.10;;;;;;5127878;27;45236;-70
2023/08/01 03:05:07;;;;;;;1.85;1.23;;;25.00;48.10;;;;;;5127959;27;45124;-70
2023/08/01 03:07:34;;;;;;;2.17;1.40;;;25.00;48.10;;;;;;5127957;27;45362;-70
2023/08/01 03:10:01;;;;;;;1.75;1.48;;;25.00;48.10;;;;;;5128017;27;47358;-70
2023/08/01 03:12:28;;;;;;;1.65;1.45;;;25.00;48.10;;;;;;5127985;27;45285;-70
2023/08/01 03:14:55;;;;;;;1.98;1.60;;;25.00;48.10;;;;;;5128037;27;45310;-69
2023/08/01 03:17:22;;;;;;;1.40;1.30;;;24.90;48.10;;;;;;5128057;27;45364;-70
2023/08/01 03:19:49;;;;;;;1.63;1.48;;;24.90;48.20;;;;;;5127792;27;45407;-70
2023/08/01 03:22:17;;;;;;;1.58;1.48;;;24.90;48.20;;;;;;5127960;27;45290;-70
2023/08/01 03:24:44;;;;;;;1.90;1.40;;;24.90;48.20;;;;;;5127818;27;45240;-70
2023/08/01 03:27:11;;;;;;;1.40;1.30;;;24.90;48.20;;;;;;5128023;27;45358;-70
2023/08/01 03:29:38;;;;;;;1.60;1.50;;;24.90;48.20;;;;;;5127925;27;46557;-70
2023/08/01 03:32:05;;;;;;;1.88;1.60;;;24.90;48.30;;;;;;5127698;27;45312;-70
2023/08/01 03:34:32;;;;;;;1.50;1.38;;;24.90;48.20;;;;;;5127594;27;45339;-70
2023/08/01 03:36:59;;;;;;;1.48;1.38;;;24.90;48.30;;;;;;5128064;27;45318;-69
2023/08/01 03:39:27;;;;;;;1.65;1.38;;;24.90;48.30;;;;;;5127030;27;45717;-70
2023/08/01 03:41:54;;;;;;;1.65;1.48;;;24.90;48.40;;;;;;5126896;27;45634;-70
2023/08/01 03:44:21;;;;;;;1.83;1.38;;;24.90;48.30;;;;;;5127424;27;45321;-70
2023/08/01 03:46:48;;;;;;;2.22;1.35;;;24.90;48.30;;;;;;5127611;27;45155;-70
2023/08/01 03:49:15;;;;;;;3.08;1.58;;;24.80;48.20;;;;;;5127284;27;46688;-70
2023/08/01 03:51:41;;;;;;;1.85;1.65;;;24.80;48.30;;;;;;5127412;27;45282;-70
2023/08/01 03:54:08;;;;;;;1.98;1.40;;;24.80;48.30;;;;;;5127086;27;45320;-70
2023/08/01 03:56:39;;;;;;;1.40;1.30;;;24.80;48.30;;;;;;5127537;27;45381;-70
2023/08/01 03:59:05;;;;;;;2.03;1.52;;;24.80;48.30;;;;;;5127089;27;46699;-70
2023/08/01 04:01:31;;;;;;;1.50;1.40;;;24.80;48.30;;;;;;5127147;27;45369;-70
2023/08/01 04:03:58;;;;;;;1.75;1.63;;;24.80;48.30;;;;;;5127162;27;45315;-70
2023/08/01 04:06:25;;;;;;;1.60;1.50;;;24.80;48.40;;;;;;5129072;27;45382;-70
2023/08/01 04:08:52;;;;;;;1.55;1.30;;;24.80;48.40;;;;;;5130776;27;46356;-70
2023/08/01 04:11:19;;;;;;;2.35;1.30;;;24.70;48.40;;;;;;5131015;27;45315;-70
2023/08/01 04:13:47;;;;;;;1.73;1.42;;;24.70;48.40;;;;;;5130998;27;45440;-70
2023/08/01 04:16:14;;;;;;;1.52;1.35;;;24.70;48.40;;;;;;5131037;27;45350;-70
2023/08/01 04:18:41;;;;;;;1.73;1.40;;;24.70;48.40;;;;;;5130600;27;45264;-70
2023/08/01 04:21:08;;;;;;;1.98;1.77;;;24.70;48.50;;;;;;5130427;27;45318;-70
2023/08/01 04:23:35;;;;;;;1.70;1.60;;;24.70;48.50;;;;;;5130830;27;45324;-69
2023/08/01 04:26:05;;;;;;;2.03;1.80;;;24.70;48.50;;;;;;5130414;27;45372;-69
2023/08/01 04:28:32;;;;;;;1.90;1.17;;;24.70;49.20;;;;;;5130081;27;45340;-69
2023/08/01 04:31:01;;;;;;;1.80;1.45;;;24.70;48.50;;;;;;5130759;27;45318;-69
2023/08/01 04:33:28;;;;;;;1.63;1.50;;;24.70;48.50;;;;;;5130835;27;45348;-70
2023/08/01 04:35:54;;;;;;;1.90;1.55;;;24.70;48.60;;;;;;5131068;27;45461;-70
2023/08/01 04:38:21;;;;;;;2.00;1.65;;;24.70;48.70;;;;;;5130143;27;45415;-70
2023/08/01 04:40:48;;;;;;;2.50;1.42;;;24.70;48.60;;;;;;5130280;27;45305;-69
2023/08/01 04:43:15;;;;;;;1.88;1.50;;;24.60;48.70;;;;;;5130654;27;45389;-70
2023/08/01 04:45:42;;;;;;;1.70;1.52;;;24.60;48.70;;;;;;5130478;27;45256;-70
2023/08/01 04:48:10;;;;;;;1.50;1.40;;;24.60;48.80;;;;;;5130199;27;46678;-70
2023/08/01 04:50:37;;;;;;;1.52;1.42;;;24.60;48.70;;;;;;5130156;27;45509;-69
2023/08/01 04:53:04;;;;;;;2.83;1.60;;;24.60;48.80;;;;;;5130295;27;45296;-70
2023/08/01 04:55:31;;;;;;;1.83;1.40;;;24.60;48.90;;;;;;5127675;27;45180;-70
2023/08/01 04:57:57;;;;;;;1.33;1.23;;;24.60;48.80;;;;;;5129491;27;45443;-71
2023/08/01 05:00:24;;;;;;;1.80;1.40;;;24.50;48.90;;;;;;5128677;27;45615;-71
2023/08/01 05:02:56;;;;;;;1.55;1.33;;;24.50;49.40;;;;;;5127977;27;45575;-71
2023/08/01 05:05:24;;;;;;;2.15;1.80;;;24.50;49.30;;;;;;5125696;27;45267;-70
2023/08/01 05:07:51;;;;;;;1.50;1.40;;;24.50;49.30;;;;;;5127501;27;46342;-71
2023/08/01 05:10:18;;;;;;;1.85;1.40;;;24.50;49.50;;;;;;5123291;27;45319;-71
2023/08/01 05:12:45;;;;;;;1.88;1.65;;;24.50;49.80;;;;;;5117723;27;45451;-70
2023/08/01 05:15:12;;;;;;;2.10;1.75;;;24.50;49.90;;;;;;5126124;27;45541;-72
2023/08/01 05:17:39;;;;;;;2.85;1.63;;;24.50;49.80;;;;;;5128453;27;45388;-71
2023/08/01 05:20:07;;;;;;;1.27;1.17;;;24.50;49.80;;;;;;5128633;27;45740;-71
2023/08/01 05:22:35;;;;;;;2.30;1.50;;;24.50;49.90;;;;;;5129881;27;45278;-71
2023/08/01 05:25:03;;;;;;;1.58;1.42;;;24.50;50.50;;;;;;5130355;27;45306;-71
2023/08/01 05:27:30;;;;;;;1.75;1.50;;;24.50;50.20;;;;;;5129809;27;46309;-71
2023/08/01 05:29:57;;;;;;;1.75;1.40;;;24.40;50.10;;;;;;5129826;27;45184;-71
2023/08/01 05:32:24;;;;;;;1.77;1.30;;;24.40;50.00;;;;;;5129952;27;45201;-71
2023/08/01 05:34:51;;;;;;;2.35;1.40;;;24.40;49.90;;;;;;5127399;27;45538;-70
2023/08/01 05:37:18;;;;;;;2.10;1.52;;;24.40;49.90;;;;;;5129691;27;45556;-71
2023/08/01 05:39:46;;;;;;;1.88;1.58;;;24.40;49.80;;;;;;5129248;27;45430;-71
2023/08/01 05:42:13;;;;;;;2.85;1.20;;;24.40;49.90;;;;;;5129516;27;45321;-70
2023/08/01 05:44:39;;;;;;;2.60;1.35;;;24.40;49.80;;;;;;5129955;27;45354;-71
2023/08/01 05:47:06;;;;;;;2.58;1.50;;;24.40;49.90;;;;;;5129398;27;46691;-70
2023/08/01 05:49:33;;;;;;;1.75;1.30;;;24.40;49.80;;;;;;5129415;27;45318;-71
2023/08/01 05:52:00;;;;;;;1.67;1.40;;;24.40;49.80;;;;;;5129696;27;45362;-70
2023/08/01 05:54:27;;;;;;;1.70;1.60;;;24.40;49.80;;;;;;5128680;27;45328;-70
2023/08/01 05:56:55;;;;;;;1.55;1.38;;;24.40;49.80;;;;;;5129113;27;45390;-70
2023/08/01 05:59:22;;;;;;;1.20;1.10;;;24.40;50.20;;;;;;5129264;27;45358;-70
2023/08/01 06:01:49;;;;;;;2.00;1.73;;;24.30;49.70;;;;;;5129185;27;45496;-70
2023/08/01 06:04:16;;;;;;;1.40;1.30;;;24.30;49.60;;;;;;5129411;27;45525;-70
2023/08/01 06:06:43;;;;;;;1.95;1.48;;;24.30;49.70;;;;;;5129100;27;45503;-70
2023/08/01 06:09:09;;;;;;;3.50;1.50;;;24.30;49.70;;;;;;5129203;27;45301;-70
2023/08/01 06:11:36;;;;;;;1.88;1.38;;;24.30;49.60;;;;;;5129576;27;45323;-70
2023/08/01 06:14:04;;;;;;;1.40;1.30;;;24.30;49.70;;;;;;5129360;27;45458;-70
2023/08/01 06:16:31;;;;;;;1.73;1.45;;;24.30;49.70;;;;;;5128934;27;46753;-70
2023/08/01 06:18:59;;;;;;;1.88;1.48;;;24.30;49.80;;;;;;5129128;27;45339;-70
2023/08/01 06:21:26;;;;;;;1.90;1.50;;;24.30;49.70;;;;;;5128769;27;45276;-70
2023/08/01 06:23:52;;;;;;;2.42;1.58;;;24.30;49.70;;;;;;5129152;27;45432;-71
2023/08/01 06:26:19;;;;;;;2.08;1.33;;;24.30;49.70;;;;;;5128645;27;45318;-70
2023/08/01 06:28:48;;;;;;;1.63;1.33;;;24.30;49.80;;;;;;5127702;27;45335;-70
2023/08/01 06:31:16;;;;;;;1.33;1.23;;;24.30;49.70;;;;;;5128906;27;45380;-71
2023/08/01 06:33:43;;;;;;;1.55;1.38;;;24.30;49.80;;;;;;5128687;27;45337;-70
2023/08/01 06:36:09;;;;;;;1.65;1.35;;;24.30;50.30;;;;;;5128538;27;46348;-70
2023/08/01 06:38:36;;;;;;;1.70;1.50;;;24.20;49.80;;;;;;5128393;27;45385;-71
2023/08/01 06:41:03;;;;;;;1.42;1.33;;;24.20;49.70;;;;;;5128048;27;45273;-70
2023/08/01 06:43:30;;;;;;;1.23;1.10;;;24.20;50.40;;;;;;5128630;27;45355;-71
2023/08/01 06:45:57;;;;;;;2.08;1.38;;;24.20;49.70;;;;;;5128630;27;46416;-70
2023/08/01 06:48:25;;;;;;;1.67;1.38;;;24.20;49.70;;;;;;5128671;27;45297;-71
2023/08/01 06:50:52;;;;;;;1.67;1.30;;;24.20;49.80;;;;;;5128821;27;45299;-70
2023/08/01 06:53:19;;;;;;;1.70;1.42;;;24.20;49.80;;;;;;5128486;27;45509;-71
2023/08/01 06:55:46;;;;;;;1.52;1.33;;;24.20;49.80;;;;;;5128452;27;45461;-70
2023/08/01 06:58:13;;;;;;;2.00;1.50;;;24.20;49.90;;;;;;5128378;27;45452;-70
2023/08/01 07:00:40;;;;;;;2.28;1.30;;;24.20;49.80;;;;;;5128442;27;45434;-71
2023/08/01 07:03:07;;;;;;;1.50;1.17;;;24.20;49.90;;;;;;5128260;27;45290;-70
2023/08/01 07:05:35;;;;;;;1.75;1.63;;;24.20;49.80;;;;;;5128003;27;45291;-71
2023/08/01 07:08:02;;;;;;;1.38;1.20;;;24.20;50.40;;;;;;5128453;27;45373;-69
2023/08/01 07:10:29;;;;;;;1.58;1.40;;;24.20;49.80;;;;;;5128439;27;45247;-69
2023/08/01 07:12:56;;;;;;;1.50;1.40;;;24.30;49.70;;;;;;5128475;27;45422;-70
2023/08/01 07:15:23;;;;;;;1.70;1.60;;;24.20;49.80;;;;;;5127855;27;45457;-69
2023/08/01 07:17:50;;;;;;;1.50;1.40;;;24.20;49.80;;;;;;5128090;27;45321;-71
2023/08/01 07:20:17;;;;;;;2.65;1.52;;;24.20;49.80;;;;;;5128151;27;45293;-70
2023/08/01 07:22:45;;;;;;;1.55;1.45;;;24.20;50.10;;;;;;5128383;27;45534;-70
2023/08/01 07:25:12;;;;;;;1.38;1.27;;;24.20;50.00;;;;;;5127896;27;45405;-69
2023/08/01 07:27:39;;;;;;;1.73;1.40;;;24.20;50.10;;;;;;5127909;27;45259;-69
2023/08/01 07:30:07;;;;;;;1.40;1.30;;;24.20;50.20;;;;;;5127851;27;45313;-70
2023/08/01 07:32:33;;;;;;;1.50;1.40;;;24.20;50.10;;;;;;5128033;27;45299;-70
2023/08/01 07:35:00;;;;;;;4.10;1.45;;;24.20;50.10;;;;;;5127432;27;46747;-69
2023/08/01 07:37:29;;;;;;;1.98;1.48;;;24.10;50.00;;;;;;5127627;27;45270;-69
2023/08/01 07:39:57;;;;;;;1.50;1.40;;;24.10;50.10;;;;;;5127452;27;45366;-70
2023/08/01 07:42:24;;;;;;;2.03;1.50;;;24.10;50.10;;;;;;5127821;27;45312;-69
2023/08/01 07:44:51;;;;;;;1.92;1.50;;;24.10;50.10;;;;;;5127201;27;46409;-70
2023/08/01 07:47:18;;;;;;;2.55;1.70;;;24.10;50.10;;;;;;5127521;27;45268;-70
2023/08/01 07:49:45;;;;;;;2.03;1.60;;;24.10;50.20;;;;;;5127334;27;45323;-69
2023/08/01 07:52:12;;;;;;;2.53;1.80;;;24.10;50.30;;;;;;5127872;27;45491;-69
2023/08/01 07:54:39;;;;;;;1.92;1.60;;;24.10;50.30;;;;;;5127121;27;45360;-70
2023/08/01 07:57:07;;;;;;;2.45;1.50;;;24.00;50.90;;;;;;5127310;27;45452;-70
2023/08/01 07:59:34;;;;;;;2.45;1.55;;;24.00;51.00;;;;;;5127482;27;45260;-70
2023/08/01 08:02:01;;;;;;;2.33;1.67;;;24.00;50.30;;;;;;5127462;27;45414;-69
2023/08/01 08:04:28;;;;;;;2.15;1.58;;;24.00;50.30;;;;;;5127412;27;45379;-69
2023/08/01 08:06:59;;;;;;;1.58;1.48;;;24.00;50.40;;;;;;5127605;27;45444;-70
2023/08/01 08:09:26;;;;;;;2.38;1.67;;;24.00;50.40;;;;;;5127288;27;45395;-69
2023/08/01 08:11:53;;;;;;;2.65;1.60;;;24.00;50.40;;;;;;5127816;27;45384;-69
2023/08/01 08:14:22;;;;;;;2.03;1.48;;;24.00;50.40;;;;;;5126179;27;47172;-69
2023/08/01 08:16:49;;;;;;;2.42;1.83;;;24.00;50.40;;;;;;5127057;27;45282;-70
2023/08/01 08:19:16;;;;;;;4.30;2.05;;;24.00;50.70;;;;;;5127714;27;45264;-69
2023/08/01 08:21:43;;;;;;;2.63;1.90;;;24.00;50.90;;;;;;5127027;27;45522;-69
2023/08/01 08:24:10;;;;;;;2.88;1.83;;;23.90;50.70;;;;;;5127014;27;45690;-69
2023/08/01 08:26:39;;;;;;;3.72;1.80;;;24.00;50.70;;;;;;5127141;27;45351;-69
2023/08/01 08:29:06;;;;;;;1.65;1.52;;;24.00;50.50;;;;;;5126911;27;45620;-69
2023/08/01 08:31:34;;;;;;;3.75;1.42;;;24.00;50.50;;;;;;5127327;27;45372;-70
2023/08/01 08:34:01;;;;;;;3.30;1.80;;;24.00;50.50;;;;;;5126489;27;46382;-68
2023/08/01 08:36:28;;;;;;;1.83;1.63;;;24.00;50.60;;;;;;5126610;27;45127;-68
2023/08/01 08:38:54;;;;;;;2.38;1.60;;;24.00;50.60;;;;;;5127094;27;45325;-69
2023/08/01 08:41:22;;;;;;;2.38;1.85;;;24.00;50.40;;;;;;5127097;27;45329;-69
2023/08/01 08:43:49;;;;;;;4.35;1.77;;;24.10;50.50;;;;;;5126574;27;47357;-69
2023/08/01 08:46:16;;;;;;;2.50;1.63;;;24.10;50.50;;;;;;5126738;27;45456;-69
2023/08/01 08:48:46;;;;;;;3.40;2.15;;;24.10;50.50;;;;;;5127079;27;45228;-69
2023/08/01 08:51:13;;;;;;;3.10;2.00;;;24.10;50.60;;;;;;5127099;27;45669;-71
2023/08/01 08:53:39;;;;;;;2.08;1.80;;;24.10;50.60;;;;;;5129601;27;45512;-70
2023/08/01 08:56:06;;;;;;;2.92;1.63;;;24.10;50.50;;;;;;5130326;27;45318;-70
2023/08/01 08:58:33;;;;;;;3.22;2.03;;;24.10;50.50;;;;;;5130748;27;45294;-68
2023/08/01 09:01:00;;;;;;;4.18;1.80;;;24.10;50.50;;;;;;5130396;27;45393;-69
2023/08/01 09:03:27;;;;;;;2.00;1.83;;;24.10;51.00;;;;;;5129794;27;45263;-71
2023/08/01 09:06:01;;;;;;;4.43;1.95;;;24.10;50.40;;;;;;5129667;27;45291;-68
2023/08/01 09:08:29;;;;;;;2.25;1.83;;;24.10;50.30;;;;;;5130313;27;45721;-70
2023/08/01 09:10:56;;;;;;;5.47;1.90;;;24.20;50.40;;;;;;5130691;27;45414;-70
2023/08/01 09:13:23;;;;;;;3.85;2.13;;;24.20;50.40;;;;;;5130106;27;45223;-71
2023/08/01 09:15:50;;;;;;;7.18;2.28;;;24.20;50.40;;;;;;5129886;27;45370;-70
2023/08/01 09:18:16;;;;;;;2.13;1.75;;;24.20;50.40;;;;;;5130001;27;45276;-70
2023/08/01 09:20:44;;;;;;;4.32;1.95;;;24.20;50.30;;;;;;5129980;27;45319;-69
2023/08/01 09:23:12;;;;;;;6.30;2.50;;;24.20;50.50;;;;;;5129150;27;46778;-68
2023/08/01 09:25:39;;;;;;;2.42;1.88;;;24.20;50.40;;;;;;5129973;27;45320;-69
2023/08/01 09:28:16;;;;;;;5.00;2.50;;;24.20;50.20;;;;;;5130090;27;45227;-69
2023/08/01 09:30:47;;;;;;;4.90;2.05;;;24.20;50.30;;;;;;5130339;27;45349;-69
2023/08/01 09:33:14;;;;;;;4.22;2.65;;;24.30;50.30;;;;;;5129926;27;46320;-68
2023/08/01 09:35:42;;;;;;;3.50;2.17;;;24.30;50.30;;;;;;5129949;27;45287;-69
2023/08/01 09:38:09;;;;;;;2.35;2.15;;;24.30;50.20;;;;;;5130270;27;45324;-69
2023/08/01 09:40:41;;;;;;;5.75;2.70;;;24.30;50.30;;;;;;5130057;27;45475;-69
2023/08/01 09:43:07;;;;;;;3.90;2.20;;;24.30;50.20;;;;;;5129288;27;45293;-68
2023/08/01 09:45:35;;;;;;;3.58;2.15;;;24.30;50.20;;;;;;5129278;27;45496;-69
2023/08/01 09:48:02;;;;;;;2.13;1.92;;;24.30;50.30;;;;;;5129365;27;45318;-68
2023/08/01 09:50:29;;;;;;;3.55;2.45;;;24.30;50.20;;;;;;5129807;27;45496;-69
2023/08/01 09:52:55;;;;;;;4.28;2.50;;;24.30;50.20;;;;;;5129505;27;45317;-68
2023/08/01 09:55:26;;;;;;;2.85;2.20;;;24.30;50.20;;;;;;5129269;27;44729;-68
2023/08/01 09:57:55;;;;;;;5.32;2.50;;;24.30;50.30;;;;;;5129587;27;45394;-68
2023/08/01 10:00:22;;;;;;;3.60;2.63;;;24.30;50.20;;;;;;5129476;27;45315;-70
2023/08/01 10:02:48;;;;;;;5.57;2.38;;;24.30;50.20;;;;;;5128767;27;45460;-70
2023/08/01 10:05:15;;;;;;;3.42;2.28;;;24.30;50.40;;;;;;5129162;27;45376;-70
2023/08/01 10:07:42;;;;;;;4.03;2.40;;;24.40;50.20;;;;;;5129357;27;45260;-70
2023/08/01 10:10:10;;;;;;;5.95;2.22;;;24.40;50.90;;;;;;5129309;27;45437;-69
2023/08/01 10:12:37;;;;;;;4.93;2.47;;;24.30;50.30;;;;;;5128647;27;46247;-70
2023/08/01 10:15:07;;;;;;;4.22;2.58;;;24.40;50.40;;;;;;5128489;27;45259;-70
2023/08/01 10:17:34;;;;;;;8.07;2.30;;;24.30;50.30;;;;;;5129021;27;45223;-69
2023/08/01 10:20:01;;;;;;;3.08;2.50;;;24.40;50.20;;;;;;5129149;27;45467;-70
2023/08/01 10:22:28;;;;;;;4.28;2.95;;;24.40;50.30;;;;;;5128552;27;45434;-70
2023/08/01 10:24:55;;;;;;;5.30;2.50;;;24.40;50.20;;;;;;5128650;27;45376;-70
2023/08/01 10:27:22;;;;;;;4.22;2.75;;;24.40;50.20;;;;;;5128916;27;45427;-69
2023/08/01 10:29:57;;;;;;;4.80;2.38;;;24.40;50.20;;;;;;5129578;27;45256;-69
2023/08/01 10:32:31;;;;;;;3.22;2.30;;;24.40;50.10;;;;;;5128736;27;46394;-70
2023/08/01 10:34:58;;;;;;;4.38;2.50;;;24.40;50.30;;;;;;5128324;27;45445;-69
2023/08/01 10:37:25;;;;;;;4.80;2.80;;;24.50;50.50;;;;;;5128969;27;45273;-69
2023/08/01 10:39:57;;;;;;;4.22;2.33;;;24.50;50.10;;;;;;5129003;27;45323;-70
2023/08/01 10:42:24;;;;;;;3.42;2.65;;;24.60;50.20;;;;;;5128486;27;46808;-69
2023/08/01 10:44:51;;;;;;;6.70;2.58;;;24.60;50.00;;;;;;5128281;27;45290;-69
2023/08/01 10:47:26;;;;;;;4.40;2.20;;;24.70;50.00;;;;;;5128708;27;45308;-69
2023/08/01 10:49:54;;;;;;;3.75;2.58;;;24.70;49.90;;;;;;5128616;27;45310;-69
2023/08/01 10:52:23;;;;;;;3.55;2.47;;;24.80;50.20;;;;;;5128179;27;45434;-68
2023/08/01 10:54:57;;;;;;;5.15;2.60;;;24.80;49.70;;;;;;5127898;27;45448;-68
2023/08/01 10:57:24;;;;;;;4.95;2.47;;;24.80;49.80;;;;;;5128240;27;45365;-68
2023/08/01 10:59:51;;;;;;;4.93;2.70;;;24.90;50.20;;;;;;5128643;27;45172;-69
2023/08/01 11:02:23;;;;;;;3.65;2.60;;;24.90;50.10;;;;;;5127833;27;46460;-69
2023/08/01 11:04:58;;;;;;;4.60;2.45;;;25.00;49.90;;;;;;5128214;27;45206;-68
2023/08/01 11:07:25;;;;;;;5.03;2.75;;;25.00;50.20;;;;;;5128335;27;45267;-68
2023/08/01 11:10:05;;;;;;;6.07;2.90;;;25.10;49.70;;;;;;5128441;27;45390;-69
2023/08/01 11:12:34;;;;;;;3.70;2.38;;;25.10;49.90;;;;;;5128082;27;47357;-69
2023/08/01 11:15:01;;;;;;;3.10;2.25;;;25.10;49.90;;;;;;5127245;27;45341;-68
2023/08/01 11:17:28;;;;;;;6.53;2.63;;;25.10;50.10;;;;;;5127957;27;45266;-68
2023/08/01 11:20:04;;;;;;;5.65;2.78;;;25.20;50.20;;;;;;5128487;27;45406;-68
2023/08/01 11:22:31;;;;;;;4.50;2.45;;;25.20;50.20;;;;;;5127530;27;45646;-70
2023/08/01 11:24:58;;;;;;;4.05;2.65;;;25.10;50.30;;;;;;5127659;27;45350;-67
2023/08/01 11:27:25;;;;;;;6.03;2.88;;;25.20;50.40;;;;;;5125130;27;45294;-70
2023/08/01 11:29:52;;;;;;;7.68;2.80;;;25.20;50.60;;;;;;5128011;27;45410;-70
2023/08/01 11:32:20;;;;;;;5.43;2.35;;;25.20;50.50;;;;;;5127419;27;47557;-69
2023/08/01 11:34:46;;;;;;;3.78;2.33;;;25.20;50.50;;;;;;5127414;27;45403;-69
2023/08/01 11:37:15;;;;;;;6.88;2.47;;;25.20;50.60;;;;;;5127818;27;45443;-69
2023/08/01 11:39:42;;;;;;;4.47;2.75;;;25.20;50.60;;;;;;5128215;27;45285;-70
2023/08/01 11:42:09;;;;;;;4.63;2.55;;;25.20;50.80;;;;;;5127213;27;45317;-70
2023/08/01 11:44:36;;;;;;;3.72;2.30;;;25.20;50.80;;;;;;5127365;27;45441;-70
2023/08/01 11:47:03;;;;;;;6.65;2.42;;;25.20;51.00;;;;;;5127690;27;45305;-69
2023/08/01 11:49:30;;;;;;;4.38;2.83;;;25.30;51.00;;;;;;5127834;27;45313;-69
2023/08/01 11:52:00;;;;;;;5.63;2.60;;;25.30;50.70;;;;;;5127743;27;45181;-69
2023/08/01 11:54:28;;;;;;;5.75;2.35;;;25.30;50.70;;;;;;5126849;27;45388;-69
2023/08/01 11:57:01;;;;;;;3.08;2.20;;;25.30;50.70;;;;;;5127442;27;45232;-69
2023/08/01 11:59:28;;;;;;;5.05;2.50;;;25.30;50.80;;;;;;5127783;27;45396;-69
2023/08/01 12:01:54;;;;;;;3.40;2.30;;;25.30;50.70;;;;;;5124233;27;45282;-70
2023/08/01 12:04:28;;;;;;;4.20;2.25;;;25.30;50.60;;;;;;5127143;27;45308;-70
2023/08/01 12:06:56;;;;;;;4.40;2.30;;;25.40;50.50;;;;;;5127298;27;45160;-70
2023/08/01 12:09:23;;;;;;;4.65;2.55;;;25.50;50.40;;;;;;5127222;27;45347;-70
2023/08/01 12:11:59;;;;;;;5.15;2.40;;;25.60;51.00;;;;;;5127113;27;45246;-70
2023/08/01 12:14:27;;;;;;;3.00;2.35;;;25.60;50.40;;;;;;5126984;27;45381;-70
2023/08/01 12:16:54;;;;;;;4.68;2.22;;;25.60;50.40;;;;;;5127410;27;45349;-70
2023/08/01 12:19:22;;;;;;;4.75;2.17;;;25.60;50.40;;;;;;5127355;27;45176;-69
2023/08/01 12:21:49;;;;;;;4.28;2.10;;;25.60;50.40;;;;;;5126831;27;45711;-70
2023/08/01 12:24:16;;;;;;;3.13;1.90;;;25.70;50.20;;;;;;5126622;27;45468;-71
2023/08/01 12:26:42;;;;;;;3.08;1.90;;;25.80;50.10;;;;;;5127457;27;45428;-70
2023/08/01 12:29:11;;;;;;;2.50;2.10;;;26.00;49.80;;;;;;5130910;27;45304;-67
2023/08/01 12:31:38;;;;;;;2.05;1.52;;;26.00;49.90;;;;;;5130709;27;45495;-70
2023/08/01 12:34:05;;;;;;;3.38;2.30;;;26.10;50.30;;;;;;5130517;27;45458;-71
2023/08/01 12:36:32;;;;;;;3.85;2.17;;;26.10;49.90;;;;;;5130486;27;45318;-67
2023/08/01 12:38:59;;;;;;;2.60;1.98;;;26.20;50.40;;;;;;5130598;27;45358;-69
2023/08/01 12:41:26;;;;;;;2.58;2.00;;;26.10;50.10;;;;;;5130304;27;46388;-69
2023/08/01 12:43:53;;;;;;;2.35;2.00;;;26.10;50.30;;;;;;5130077;27;45281;-69
2023/08/01 12:46:21;;;;;;;3.15;1.90;;;26.00;50.50;;;;;;5130328;27;45317;-70
2023/08/01 12:48:48;;;;;;;2.00;1.80;;;26.00;50.10;;;;;;5130733;27;45302;-68